Time;durP1;ratioP1;P1;durP2;ratioP2;P2;SDS_P1;SDS_P2;PMS_P1;PMS_P2;Temp;Humidity;BMP_temperature;BMP_pressure;BME280_temperature;BME280_humidity;BME280_pressure;Samples;Min_cycle;Max_cycle;Signal;HPM_P1;HPM_P2
2023/08/31 00:01:33;;;;;;;5.83;2.37;;;12.00;99.90;;;;;;4952621;28;20741;-76
2023/08/31 00:03:59;;;;;;;4.70;2.07;;;11.90;99.90;;;;;;4953352;29;20274;-76
2023/08/31 00:06:25;;;;;;;10.20;2.20;;;11.90;99.90;;;;;;4954573;29;20566;-76
2023/08/31 00:08:51;;;;;;;5.47;2.20;;;11.90;99.90;;;;;;4954397;28;20199;-76
2023/08/31 00:11:17;;;;;;;9.10;2.20;;;11.90;99.90;;;;;;4954688;28;20202;-76
2023/08/31 00:13:42;;;;;;;8.20;2.53;;;11.90;99.90;;;;;;4954017;28;20190;-75
2023/08/31 00:16:09;;;;;;;6.97;2.60;;;11.90;99.90;;;;;;4954458;29;20250;-76
2023/08/31 00:18:36;;;;;;;5.47;2.70;;;11.90;99.90;;;;;;4954399;29;20280;-76
2023/08/31 00:21:02;;;;;;;5.50;2.63;;;11.90;99.90;;;;;;4954381;28;20318;-77
2023/08/31 00:23:28;;;;;;;8.43;2.60;;;11.90;99.90;;;;;;4953148;29;20326;-76
2023/08/31 00:25:57;;;;;;;9.83;2.70;;;11.90;99.90;;;;;;4954344;29;20181;-76
2023/08/31 00:28:22;;;;;;;5.97;3.10;;;11.80;99.90;;;;;;4953053;29;20218;-76
2023/08/31 00:30:48;;;;;;;6.27;2.83;;;11.80;99.90;;;;;;4953003;28;20175;-76
2023/08/31 00:33:15;;;;;;;11.30;3.50;;;11.80;99.90;;;;;;4954125;28;20190;-76
2023/08/31 00:35:45;;;;;;;8.87;3.40;;;11.80;99.90;;;;;;4952984;29;20233;-76
2023/08/31 00:38:15;;;;;;;6.00;3.50;;;11.80;99.90;;;;;;4953285;29;20535;-76
2023/08/31 00:40:44;;;;;;;7.90;3.00;;;11.90;99.90;;;;;;4954427;29;20179;-76
2023/08/31 00:43:10;;;;;;;8.50;3.53;;;11.90;99.90;;;;;;4954128;28;20210;-76
2023/08/31 00:45:37;;;;;;;14.20;3.30;;;11.90;99.90;;;;;;4954250;29;20171;-76
2023/08/31 00:48:04;;;;;;;6.93;3.47;;;11.90;99.90;;;;;;4954053;29;20643;-76
2023/08/31 00:50:30;;;;;;;6.77;2.77;;;11.90;99.90;;;;;;4954045;28;20171;-76
2023/08/31 00:52:56;;;;;;;5.33;2.53;;;11.90;99.90;;;;;;4954027;28;20210;-75
2023/08/31 00:55:22;;;;;;;10.70;2.93;;;11.90;99.90;;;;;;4954050;29;20292;-77
2023/08/31 00:57:48;;;;;;;11.90;2.77;;;11.80;99.90;;;;;;4954102;29;20175;-76
2023/08/31 01:00:14;;;;;;;18.20;3.27;;;11.70;99.90;;;;;;4952750;29;20206;-76
2023/08/31 01:02:42;;;;;;;11.17;2.70;;;11.70;99.90;;;;;;4954077;28;20627;-75
2023/08/31 01:05:15;;;;;;;12.03;2.97;;;11.70;99.90;;;;;;4952622;29;20179;-76
2023/08/31 01:08:14;;;;;;;5.97;2.77;;;11.70;99.90;;;;;;4954061;29;20171;-76
2023/08/31 01:11:03;;;;;;;12.60;2.87;;;11.70;99.90;;;;;;4954160;29;20620;-75
2023/08/31 01:13:31;;;;;;;7.17;2.73;;;11.60;99.90;;;;;;4956222;28;20647;-76
2023/08/31 01:16:03;;;;;;;5.07;2.60;;;11.60;99.90;;;;;;4957669;29;20175;-76
2023/08/31 01:18:29;;;;;;;6.83;2.43;;;11.60;99.90;;;;;;4957766;29;20222;-76
2023/08/31 01:21:19;;;;;;;6.10;2.70;;;11.50;99.90;;;;;;4957615;29;20179;-76
2023/08/31 01:23:56;;;;;;;6.33;2.40;;;11.50;99.90;;;;;;4957687;29;20650;-76
2023/08/31 01:26:23;;;;;;;4.03;2.50;;;11.50;99.90;;;;;;4968634;28;20190;-76
2023/08/31 01:28:49;;;;;;;8.60;2.80;;;11.40;99.90;;;;;;4977004;28;20272;-76
2023/08/31 01:31:15;;;;;;;4.30;2.53;;;11.40;99.90;;;;;;4976593;28;20627;-76
2023/08/31 01:33:41;;;;;;;12.20;3.00;;;11.40;99.90;;;;;;4976943;28;20214;-76
2023/08/31 01:36:29;;;;;;;4.93;3.13;;;11.40;99.90;;;;;;4974491;28;20178;-76
2023/08/31 01:39:18;;;;;;;4.77;3.17;;;11.40;99.90;;;;;;4976599;28;20166;-76
2023/08/31 01:41:50;;;;;;;9.93;3.40;;;11.30;99.90;;;;;;4976630;28;20333;-76
2023/08/31 01:44:18;;;;;;;9.33;2.97;;;11.30;99.90;;;;;;4976842;28;20180;-76
2023/08/31 01:46:46;;;;;;;12.50;3.07;;;11.30;99.90;;;;;;4973026;28;20194;-76
2023/08/31 01:49:12;;;;;;;11.77;2.87;;;11.20;99.90;;;;;;4974162;28;20241;-75
2023/08/31 01:51:38;;;;;;;4.50;3.10;;;11.20;99.90;;;;;;4974835;28;20272;-76
2023/08/31 01:54:03;;;;;;;8.17;3.07;;;11.10;99.90;;;;;;4976349;28;20642;-76
2023/08/31 01:56:29;;;;;;;6.90;2.87;;;11.10;99.90;;;;;;4974196;28;20210;-76
2023/08/31 01:58:54;;;;;;;9.30;2.70;;;11.00;99.90;;;;;;4976430;28;20186;-76
2023/08/31 02:01:20;;;;;;;4.63;2.60;;;11.00;99.90;;;;;;4974971;28;20655;-76
2023/08/31 02:03:45;;;;;;;6.03;2.87;;;11.00;99.90;;;;;;4974850;28;20178;-76
2023/08/31 02:06:11;;;;;;;6.30;3.00;;;11.00;99.90;;;;;;4975250;28;20182;-76
2023/08/31 02:08:37;;;;;;;10.20;2.97;;;11.00;99.90;;;;;;4976163;28;20570;-76
2023/08/31 02:11:02;;;;;;;12.37;3.33;;;10.90;99.90;;;;;;4974535;28;20650;-75
2023/08/31 02:13:29;;;;;;;6.87;2.77;;;10.80;99.90;;;;;;4975887;28;20283;-76
2023/08/31 02:15:55;;;;;;;9.97;3.13;;;10.80;99.90;;;;;;4974916;28;20190;-76
2023/08/31 02:18:20;;;;;;;6.60;3.20;;;10.80;99.90;;;;;;4975865;28;20178;-76
2023/08/31 02:20:46;;;;;;;6.43;3.00;;;10.80;99.90;;;;;;4974555;28;20178;-76
2023/08/31 02:23:11;;;;;;;11.67;3.10;;;10.80;99.90;;;;;;4974022;28;20296;-76
2023/08/31 02:25:37;;;;;;;8.57;3.07;;;10.70;99.90;;;;;;4974525;28;20741;-76
2023/08/31 02:28:03;;;;;;;7.77;2.87;;;10.70;99.90;;;;;;4974338;28;20186;-76
2023/08/31 02:30:29;;;;;;;5.73;2.70;;;10.70;99.90;;;;;;4975578;28;20202;-76
2023/08/31 02:32:54;;;;;;;7.60;2.60;;;10.60;99.90;;;;;;4974090;28;20219;-75
2023/08/31 02:35:20;;;;;;;7.53;3.03;;;10.60;99.90;;;;;;4973274;28;20174;-76
2023/08/31 02:37:45;;;;;;;6.37;3.17;;;10.70;99.90;;;;;;4974107;28;20185;-76
2023/08/31 02:40:11;;;;;;;6.30;2.83;;;10.60;99.90;;;;;;4975467;28;20519;-76
2023/08/31 02:42:37;;;;;;;5.13;3.00;;;10.50;99.90;;;;;;4974326;28;20221;-76
2023/08/31 02:45:03;;;;;;;7.50;2.97;;;10.50;99.90;;;;;;4973282;28;20566;-76
2023/08/31 02:47:29;;;;;;;9.40;3.00;;;10.50;99.90;;;;;;4975290;28;20310;-76
2023/08/31 02:49:56;;;;;;;4.07;2.60;;;10.40;99.90;;;;;;4975188;28;20293;-76
2023/08/31 02:52:21;;;;;;;5.83;3.20;;;10.40;99.90;;;;;;4975170;28;20224;-75
2023/08/31 02:54:47;;;;;;;8.70;2.53;;;10.30;99.90;;;;;;4972285;28;20206;-76
2023/08/31 02:57:12;;;;;;;6.53;3.10;;;10.30;99.90;;;;;;4974334;28;20197;-75
2023/08/31 02:59:38;;;;;;;6.23;2.57;;;10.30;99.90;;;;;;4973875;28;20553;-76
2023/08/31 03:02:04;;;;;;;7.10;2.90;;;10.20;99.90;;;;;;4974865;28;20696;-77
2023/08/31 03:04:29;;;;;;;5.67;2.90;;;10.30;99.90;;;;;;4972771;28;20685;-76
2023/08/31 03:06:55;;;;;;;7.17;3.00;;;10.30;99.90;;;;;;4973632;28;20182;-76
2023/08/31 03:09:20;;;;;;;7.43;3.67;;;10.20;99.90;;;;;;4974883;28;20674;-75
2023/08/31 03:11:46;;;;;;;7.30;3.07;;;10.30;99.90;;;;;;4973388;28;20194;-76
2023/08/31 03:14:12;;;;;;;6.73;3.13;;;10.30;99.90;;;;;;4973804;28;20174;-76
2023/08/31 03:16:37;;;;;;;5.10;3.20;;;10.30;99.90;;;;;;4975006;28;20175;-77
2023/08/31 03:19:04;;;;;;;4.90;2.97;;;10.30;99.90;;;;;;4974927;28;20229;-76
2023/08/31 03:21:29;;;;;;;9.57;2.80;;;10.30;99.90;;;;;;4973294;28;20201;-76
2023/08/31 03:23:55;;;;;;;6.47;2.90;;;10.30;99.90;;;;;;4973568;28;20257;-76
2023/08/31 03:26:20;;;;;;;6.27;3.17;;;10.30;99.90;;;;;;4973274;28;20274;-75
2023/08/31 03:28:46;;;;;;;9.23;2.77;;;10.30;99.90;;;;;;4974468;28;20202;-75
2023/08/31 03:31:11;;;;;;;4.93;2.93;;;10.30;99.90;;;;;;4973064;28;20269;-75
2023/08/31 03:33:37;;;;;;;8.73;3.40;;;10.30;99.90;;;;;;4974432;28;20241;-76
2023/08/31 03:36:04;;;;;;;5.43;3.33;;;10.30;99.90;;;;;;4972381;28;20197;-76
2023/08/31 03:38:30;;;;;;;8.53;3.33;;;10.30;99.90;;;;;;4974447;28;20590;-76
2023/08/31 03:40:57;;;;;;;4.57;3.40;;;10.30;99.90;;;;;;4974490;28;20175;-76
2023/08/31 03:43:23;;;;;;;6.10;3.00;;;10.20;99.90;;;;;;4973001;28;20828;-76
2023/08/31 03:45:49;;;;;;;9.73;3.20;;;10.10;99.90;;;;;;4970967;28;20186;-76
2023/08/31 03:48:15;;;;;;;7.00;3.30;;;10.10;99.90;;;;;;4974265;28;20174;-76
2023/08/31 03:50:40;;;;;;;5.50;2.70;;;10.00;99.90;;;;;;4972805;28;20181;-75
2023/08/31 03:53:06;;;;;;;5.73;3.10;;;10.10;99.90;;;;;;4972744;28;20573;-76
2023/08/31 03:55:31;;;;;;;9.10;3.30;;;10.10;99.90;;;;;;4973072;28;20194;-76
2023/08/31 03:57:58;;;;;;;8.10;3.43;;;10.10;99.90;;;;;;4973681;28;20651;-76
2023/08/31 04:00:23;;;;;;;3.83;2.93;;;10.00;99.90;;;;;;4972750;28;20509;-76
2023/08/31 04:02:49;;;;;;;8.07;3.47;;;10.00;99.90;;;;;;4974004;28;20265;-76
2023/08/31 04:05:15;;;;;;;11.17;3.23;;;10.00;99.90;;;;;;4971996;28;20210;-78
2023/08/31 04:07:41;;;;;;;7.40;3.30;;;10.10;99.90;;;;;;4973799;28;20592;-76
2023/08/31 04:10:07;;;;;;;6.03;2.90;;;10.10;99.90;;;;;;4973861;28;20194;-76
2023/08/31 04:12:34;;;;;;;3.43;2.83;;;10.10;99.90;;;;;;4972611;28;20654;-76
2023/08/31 04:15:00;;;;;;;6.27;3.13;;;10.10;99.90;;;;;;4972511;28;20209;-76
2023/08/31 04:17:25;;;;;;;9.40;3.27;;;10.10;99.90;;;;;;4972866;28;20674;-75
2023/08/31 04:19:51;;;;;;;12.60;3.37;;;10.00;99.90;;;;;;4974006;28;20178;-76
2023/08/31 04:22:17;;;;;;;4.63;3.07;;;10.00;99.90;;;;;;4972258;28;20293;-76
2023/08/31 04:24:42;;;;;;;8.83;3.17;;;10.00;99.90;;;;;;4973976;28;20178;-76
2023/08/31 04:27:08;;;;;;;4.83;3.07;;;10.00;99.90;;;;;;4973619;28;20228;-76
2023/08/31 04:29:33;;;;;;;6.60;3.20;;;10.00;99.90;;;;;;4973569;28;20678;-76
2023/08/31 04:31:59;;;;;;;7.20;3.53;;;10.00;99.90;;;;;;4973607;28;20661;-75
2023/08/31 04:34:24;;;;;;;9.37;3.27;;;10.00;99.90;;;;;;4973574;28;20178;-75
2023/08/31 04:36:50;;;;;;;6.77;3.00;;;10.00;99.90;;;;;;4973587;28;20239;-76
2023/08/31 04:39:15;;;;;;;6.97;2.97;;;10.00;99.90;;;;;;4973628;28;20198;-76
2023/08/31 04:41:41;;;;;;;3.67;3.00;;;9.90;99.90;;;;;;4972082;28;20218;-76
2023/08/31 04:44:06;;;;;;;6.77;3.10;;;9.90;99.90;;;;;;4972244;28;20201;-76
2023/08/31 04:46:33;;;;;;;5.37;3.10;;;9.90;99.90;;;;;;4972524;28;20190;-76
2023/08/31 04:48:59;;;;;;;8.37;3.80;;;9.90;99.90;;;;;;4977312;28;20277;-76
2023/08/31 04:51:32;;;;;;;3.67;2.77;;;9.80;99.90;;;;;;4977524;28;20625;-78
2023/08/31 04:53:58;;;;;;;3.60;3.07;;;9.90;99.90;;;;;;4976515;28;20186;-76
2023/08/31 04:56:24;;;;;;;9.80;2.97;;;9.90;99.90;;;;;;4977350;28;20182;-76
2023/08/31 04:58:49;;;;;;;6.07;3.00;;;9.80;99.90;;;;;;4977474;28;20187;-76
2023/08/31 05:01:15;;;;;;;11.67;3.73;;;9.80;99.90;;;;;;4977308;28;20217;-77
2023/08/31 05:03:41;;;;;;;4.37;2.80;;;9.90;99.90;;;;;;4976077;28;20178;-77
2023/08/31 05:06:07;;;;;;;7.57;3.60;;;9.90;99.90;;;;;;4976080;28;20193;-77
2023/08/31 05:08:33;;;;;;;12.70;3.40;;;9.90;99.90;;;;;;4975891;28;20240;-76
2023/08/31 05:10:59;;;;;;;10.10;4.20;;;10.00;99.90;;;;;;4975266;28;20205;-77
2023/08/31 05:13:25;;;;;;;13.57;3.77;;;10.00;99.90;;;;;;4976505;28;20281;-76
2023/08/31 05:15:50;;;;;;;7.23;4.13;;;10.00;99.90;;;;;;4975986;28;20182;-77
2023/08/31 05:18:16;;;;;;;12.30;4.50;;;10.10;99.90;;;;;;4976045;28;20710;-77
2023/08/31 05:20:45;;;;;;;8.20;4.27;;;10.10;99.90;;;;;;4975666;28;20232;-77
2023/08/31 05:23:11;;;;;;;12.70;4.20;;;10.10;99.90;;;;;;4977094;28;20570;-78
2023/08/31 05:25:42;;;;;;;5.83;3.60;;;10.10;99.90;;;;;;4974941;28;20174;-76
2023/08/31 05:28:07;;;;;;;5.03;4.33;;;10.10;99.90;;;;;;4977413;28;20166;-77
2023/08/31 05:30:34;;;;;;;5.20;4.07;;;10.10;99.90;;;;;;4976204;28;20214;-76
2023/08/31 05:33:00;;;;;;;6.23;3.93;;;10.20;99.90;;;;;;4975766;28;20198;-75
2023/08/31 05:35:26;;;;;;;5.77;3.80;;;10.20;99.90;;;;;;4976995;28;20247;-76
2023/08/31 05:37:51;;;;;;;5.00;4.20;;;10.20;99.90;;;;;;4977111;28;20680;-76
2023/08/31 05:40:18;;;;;;;7.80;3.63;;;10.20;99.90;;;;;;4974717;28;20182;-77
2023/08/31 05:42:43;;;;;;;4.97;3.90;;;10.20;99.90;;;;;;4973345;28;20221;-76
2023/08/31 05:45:09;;;;;;;7.10;3.73;;;10.30;99.90;;;;;;4975868;28;20669;-77
2023/08/31 05:47:35;;;;;;;6.00;3.60;;;10.30;99.90;;;;;;4975387;28;20182;-76
2023/08/31 05:50:02;;;;;;;5.53;3.70;;;10.30;99.90;;;;;;4975727;28;20233;-75
2023/08/31 05:52:28;;;;;;;8.33;4.57;;;10.30;99.90;;;;;;4974272;28;20202;-76
2023/08/31 05:54:54;;;;;;;8.87;5.13;;;10.30;99.90;;;;;;4976462;28;20171;-75
2023/08/31 05:57:20;;;;;;;10.00;5.47;;;10.40;99.90;;;;;;4975054;28;20208;-76
2023/08/31 05:59:46;;;;;;;7.70;5.77;;;10.50;99.90;;;;;;4975223;28;20174;-75
2023/08/31 06:02:12;;;;;;;8.20;6.40;;;10.50;99.90;;;;;;4974941;28;20209;-76
2023/08/31 06:04:38;;;;;;;9.93;6.60;;;10.70;99.90;;;;;;4976634;28;20178;-80
2023/08/31 06:07:03;;;;;;;18.63;7.17;;;10.70;99.90;;;;;;4976496;28;20257;-79
2023/08/31 06:09:29;;;;;;;12.10;7.23;;;10.80;99.90;;;;;;4974020;28;20401;-78
2023/08/31 06:11:54;;;;;;;10.23;7.70;;;10.90;99.90;;;;;;4974394;28;20198;-77
2023/08/31 06:14:20;;;;;;;14.13;9.00;;;11.00;99.90;;;;;;4975085;28;20174;-77
2023/08/31 06:16:46;;;;;;;9.07;7.50;;;11.10;99.90;;;;;;4975981;28;20167;-78
2023/08/31 06:19:15;;;;;;;11.27;7.53;;;11.20;99.90;;;;;;4974670;28;20178;-77
2023/08/31 06:21:41;;;;;;;10.57;8.60;;;11.20;99.90;;;;;;4974694;28;20269;-77
2023/08/31 06:24:09;;;;;;;9.70;7.47;;;11.30;99.90;;;;;;4974904;28;20658;-77
2023/08/31 06:26:35;;;;;;;12.30;7.43;;;11.30;99.90;;;;;;4975950;28;20182;-77
2023/08/31 06:29:01;;;;;;;16.97;8.10;;;11.30;99.90;;;;;;4974506;28;20202;-78
2023/08/31 06:31:26;;;;;;;11.87;8.33;;;11.40;99.90;;;;;;4974640;28;20197;-78
2023/08/31 06:33:52;;;;;;;13.77;8.50;;;11.40;99.90;;;;;;4975057;28;20552;-78
2023/08/31 06:36:17;;;;;;;12.50;8.20;;;11.50;99.90;;;;;;4975559;28;20181;-77
2023/08/31 06:38:44;;;;;;;10.27;7.60;;;11.50;99.90;;;;;;4975972;28;20259;-77
2023/08/31 06:41:10;;;;;;;14.47;8.43;;;11.60;99.90;;;;;;4975794;28;20186;-78
2023/08/31 06:43:35;;;;;;;11.87;7.73;;;11.60;99.90;;;;;;4975983;28;20569;-77
2023/08/31 06:46:01;;;;;;;12.27;8.97;;;11.70;99.90;;;;;;4975715;28;20179;-77
2023/08/31 06:48:26;;;;;;;16.27;8.30;;;11.80;99.90;;;;;;4975505;28;20551;-77
2023/08/31 06:50:52;;;;;;;12.83;8.07;;;11.80;99.90;;;;;;4974277;28;20657;-77
2023/08/31 06:53:17;;;;;;;17.70;9.23;;;11.80;99.90;;;;;;4974170;28;20198;-77
2023/08/31 06:55:44;;;;;;;14.83;8.50;;;11.90;99.90;;;;;;4975376;28;20247;-77
2023/08/31 06:58:09;;;;;;;13.50;8.03;;;11.90;99.90;;;;;;4975414;28;20647;-77
2023/08/31 07:00:35;;;;;;;14.00;8.30;;;12.00;99.90;;;;;;4973493;28;20245;-77
2023/08/31 07:03:00;;;;;;;10.63;7.67;;;12.00;99.90;;;;;;4975174;28;20198;-77
2023/08/31 07:05:27;;;;;;;14.80;8.03;;;12.10;99.90;;;;;;4973912;28;20181;-77
2023/08/31 07:07:54;;;;;;;11.53;7.77;;;12.10;99.90;;;;;;4975274;28;20672;-79
2023/08/31 07:10:20;;;;;;;12.80;7.53;;;12.20;99.90;;;;;;4974914;28;20190;-77
2023/08/31 07:12:45;;;;;;;8.63;7.43;;;12.20;99.90;;;;;;4973375;28;20210;-77
2023/08/31 07:15:11;;;;;;;11.10;7.37;;;12.30;99.90;;;;;;4973717;28;20237;-77
2023/08/31 07:17:36;;;;;;;16.23;8.27;;;12.30;99.90;;;;;;4973121;28;20653;-80
2023/08/31 07:20:05;;;;;;;11.43;7.50;;;12.50;99.90;;;;;;4973149;28;20179;-77
2023/08/31 07:22:32;;;;;;;10.40;7.73;;;12.50;99.90;;;;;;4973409;28;20206;-77
2023/08/31 07:24:58;;;;;;;13.03;7.43;;;12.70;99.90;;;;;;4972896;28;20273;-77
2023/08/31 07:27:23;;;;;;;8.90;6.90;;;12.70;99.90;;;;;;4972144;28;20274;-77
2023/08/31 07:29:49;;;;;;;9.53;7.07;;;12.60;99.90;;;;;;4975008;28;20289;-77
2023/08/31 07:32:14;;;;;;;8.93;6.60;;;12.80;99.90;;;;;;4973836;28;20257;-77
2023/08/31 07:34:40;;;;;;;8.13;5.53;;;12.90;99.90;;;;;;4973465;28;20189;-76
2023/08/31 07:37:06;;;;;;;9.33;6.03;;;12.90;99.90;;;;;;4973284;28;20237;-77
2023/08/31 07:39:32;;;;;;;9.83;5.83;;;12.90;99.90;;;;;;4974551;28;20191;-77
2023/08/31 07:41:59;;;;;;;10.87;5.80;;;13.00;99.90;;;;;;4972109;28;20228;-77
2023/08/31 07:44:24;;;;;;;9.60;5.30;;;13.10;99.90;;;;;;4974516;28;20178;-77
2023/08/31 07:46:50;;;;;;;7.23;5.03;;;13.10;99.90;;;;;;4973528;28;20190;-77
2023/08/31 07:49:16;;;;;;;8.43;5.00;;;13.20;99.90;;;;;;4974406;28;20300;-77
2023/08/31 07:51:41;;;;;;;7.20;4.33;;;13.20;99.90;;;;;;4973063;28;20194;-77
2023/08/31 07:54:07;;;;;;;8.07;4.97;;;13.30;99.90;;;;;;4973036;28;20226;-77
2023/08/31 07:56:33;;;;;;;7.97;4.77;;;13.30;99.90;;;;;;4965526;28;20187;-77
2023/08/31 07:58:58;;;;;;;9.20;4.40;;;13.40;99.90;;;;;;4958420;28;20186;-77
2023/08/31 08:01:24;;;;;;;6.67;4.70;;;13.50;99.90;;;;;;4972811;28;20233;-77
2023/08/31 08:03:49;;;;;;;7.17;4.30;;;13.60;99.90;;;;;;4974198;28;20209;-77
2023/08/31 08:06:15;;;;;;;9.67;4.00;;;13.70;99.90;;;;;;4972883;28;20186;-77
2023/08/31 08:08:41;;;;;;;6.47;3.73;;;13.90;99.90;;;;;;4972193;28;20233;-79
2023/08/31 08:11:06;;;;;;;6.60;3.87;;;13.90;99.90;;;;;;4973344;28;20197;-78
2023/08/31 08:13:32;;;;;;;10.03;4.23;;;13.90;99.90;;;;;;4974124;28;20174;-78
2023/08/31 08:15:58;;;;;;;6.47;3.73;;;14.10;99.90;;;;;;4972454;28;20232;-78
2023/08/31 08:18:23;;;;;;;6.30;3.60;;;14.20;99.90;;;;;;4954820;29;20250;-77
2023/08/31 08:20:52;;;;;;;5.47;3.43;;;14.30;99.90;;;;;;4954907;28;20179;-77
2023/08/31 08:23:18;;;;;;;6.57;3.47;;;14.40;99.90;;;;;;4953024;28;20222;-77
2023/08/31 08:25:43;;;;;;;4.57;3.57;;;14.40;99.90;;;;;;4967508;28;20226;-77
2023/08/31 08:28:09;;;;;;;13.80;3.70;;;14.40;99.90;;;;;;4974239;28;20170;-77
2023/08/31 08:30:34;;;;;;;8.43;4.00;;;14.50;99.90;;;;;;4974169;28;20194;-77
2023/08/31 08:33:00;;;;;;;11.10;4.00;;;14.60;99.90;;;;;;4974055;28;20191;-77
2023/08/31 08:35:25;;;;;;;5.50;3.33;;;14.60;99.90;;;;;;4973293;28;20658;-77
2023/08/31 08:37:52;;;;;;;7.33;3.93;;;14.60;99.90;;;;;;4973918;28;20171;-77
2023/08/31 08:40:18;;;;;;;4.13;3.33;;;14.80;99.90;;;;;;4973793;28;20218;-77
2023/08/31 08:42:46;;;;;;;7.20;3.47;;;14.80;99.90;;;;;;4973558;28;20220;-78
2023/08/31 08:45:16;;;;;;;4.77;3.60;;;14.90;99.90;;;;;;4973121;28;20673;-77
2023/08/31 08:47:43;;;;;;;7.00;3.17;;;15.00;99.90;;;;;;4973722;28;20261;-78
2023/08/31 08:50:11;;;;;;;6.60;3.40;;;15.10;99.90;;;;;;4973763;28;20229;-77
2023/08/31 08:52:38;;;;;;;7.43;3.23;;;15.30;99.90;;;;;;4972432;28;20694;-78
2023/08/31 08:55:04;;;;;;;7.80;3.10;;;15.40;99.90;;;;;;4972910;28;20209;-78
2023/08/31 08:57:31;;;;;;;7.23;3.63;;;15.50;99.90;;;;;;4972367;28;20561;-78
2023/08/31 08:59:58;;;;;;;5.57;3.20;;;15.50;99.90;;;;;;4972349;28;20178;-77
2023/08/31 09:02:23;;;;;;;6.40;3.30;;;15.60;99.90;;;;;;4972356;28;20292;-77
2023/08/31 09:04:52;;;;;;;4.00;2.70;;;15.70;99.90;;;;;;4972785;28;20318;-78
2023/08/31 09:07:18;;;;;;;5.87;3.10;;;15.70;99.90;;;;;;4973641;28;20224;-78
2023/08/31 09:09:52;;;;;;;7.33;3.03;;;15.80;99.90;;;;;;4972521;28;20288;-78
2023/08/31 09:12:18;;;;;;;5.17;2.47;;;15.80;99.90;;;;;;4973735;28;20213;-78
2023/08/31 09:15:00;;;;;;;7.10;3.00;;;15.80;99.90;;;;;;4972852;28;20194;-78
2023/08/31 09:17:26;;;;;;;6.00;2.80;;;16.00;99.90;;;;;;4974115;28;20250;-78
2023/08/31 09:20:00;;;;;;;7.17;2.93;;;16.00;99.90;;;;;;4973496;28;20190;-77
2023/08/31 09:22:26;;;;;;;6.77;2.27;;;16.10;99.90;;;;;;4972699;28;20206;-77
2023/08/31 09:24:51;;;;;;;6.83;2.93;;;16.20;99.90;;;;;;4971547;28;20198;-78
2023/08/31 09:27:20;;;;;;;5.63;2.20;;;16.30;99.90;;;;;;4975245;28;20190;-77
2023/08/31 09:29:46;;;;;;;5.00;2.07;;;16.40;99.90;;;;;;4973289;28;20200;-80
2023/08/31 09:32:18;;;;;;;7.77;2.40;;;16.40;99.90;;;;;;4973865;28;20199;-78
2023/08/31 09:34:44;;;;;;;5.53;2.20;;;16.60;99.90;;;;;;4977635;28;20189;-78
2023/08/31 09:37:10;;;;;;;8.13;2.27;;;16.60;99.90;;;;;;4976315;28;20179;-78
2023/08/31 09:39:37;;;;;;;5.63;2.37;;;16.60;99.90;;;;;;4977326;28;20178;-77
2023/08/31 09:42:03;;;;;;;4.83;1.57;;;16.80;99.90;;;;;;4976196;28;20229;-78
2023/08/31 09:44:29;;;;;;;7.60;2.13;;;16.90;99.90;;;;;;4977852;28;20170;-78
2023/08/31 09:46:55;;;;;;;6.20;2.07;;;16.90;99.90;;;;;;4971885;28;20198;-77
2023/08/31 09:49:21;;;;;;;6.47;1.97;;;17.00;99.90;;;;;;4977155;28;20237;-78
2023/08/31 09:51:50;;;;;;;7.00;1.70;;;17.10;99.90;;;;;;4975845;28;20221;-78
2023/08/31 09:54:18;;;;;;;7.17;2.10;;;17.10;99.90;;;;;;4975862;28;20237;-78
2023/08/31 09:56:45;;;;;;;7.87;1.97;;;17.20;99.90;;;;;;4974853;28;20221;-78
2023/08/31 09:59:13;;;;;;;4.13;1.67;;;17.30;38.00;;;;;;4977118;28;20557;-78
2023/08/31 10:01:40;;;;;;;6.10;1.80;;;17.40;99.90;;;;;;4977360;28;20202;-78
2023/08/31 10:04:08;;;;;;;7.63;2.07;;;17.40;99.90;;;;;;4975755;28;20289;-78
2023/08/31 10:06:41;;;;;;;4.00;2.03;;;17.40;99.90;;;;;;4975885;28;20198;-78
2023/08/31 10:09:09;;;;;;;5.57;2.07;;;17.50;99.90;;;;;;4975518;28;20197;-78
2023/08/31 10:11:36;;;;;;;4.33;1.90;;;17.60;99.90;;;;;;4977155;28;20202;-78
2023/08/31 10:14:03;;;;;;;7.50;2.10;;;17.70;99.90;;;;;;4975737;28;20182;-78
2023/08/31 10:16:30;;;;;;;5.10;1.83;;;17.70;99.90;;;;;;4975955;28;20216;-78
2023/08/31 10:18:56;;;;;;;4.63;2.17;;;17.80;99.90;;;;;;4976924;28;20260;-78
2023/08/31 10:21:23;;;;;;;4.90;2.23;;;17.80;99.90;;;;;;4976962;28;20670;-78
2023/08/31 10:23:49;;;;;;;6.37;2.40;;;17.90;99.90;;;;;;4975918;28;20618;-78
2023/08/31 10:26:29;;;;;;;7.20;2.20;;;17.90;99.90;;;;;;4977587;28;20186;-78
2023/08/31 10:28:56;;;;;;;6.90;2.17;;;17.90;99.90;;;;;;4975564;28;20190;-78
2023/08/31 10:31:23;;;;;;;7.40;2.47;;;17.90;99.90;;;;;;4976407;28;20190;-78
2023/08/31 10:34:03;;;;;;;5.03;2.10;;;18.00;99.90;;;;;;4974276;28;20195;-77
2023/08/31 10:36:44;;;;;;;6.50;2.40;;;18.10;99.90;;;;;;4975373;28;20182;-78
2023/08/31 10:39:17;;;;;;;3.40;1.90;;;18.20;99.90;;;;;;4975054;28;20190;-78
2023/08/31 10:41:56;;;;;;;6.20;2.23;;;18.30;99.90;;;;;;4976221;28;20208;-78
2023/08/31 10:44:23;;;;;;;2.80;1.90;;;18.10;99.90;;;;;;4974678;28;20217;-78
2023/08/31 10:46:50;;;;;;;5.70;2.00;;;18.10;99.90;;;;;;4975167;28;20178;-78
2023/08/31 10:49:26;;;;;;;7.80;1.80;;;18.10;99.90;;;;;;4974982;28;20201;-78
2023/08/31 10:51:57;;;;;;;3.73;1.97;;;18.00;99.90;;;;;;4975387;28;20595;-78
2023/08/31 10:54:24;;;;;;;3.83;2.13;;;18.00;99.90;;;;;;4975480;28;20190;-78
2023/08/31 10:57:08;;;;;;;5.63;1.87;;;18.00;99.90;;;;;;4974864;28;20724;-78
2023/08/31 10:59:53;;;;;;;7.20;2.10;;;17.90;99.90;;;;;;4976462;28;20166;-78
2023/08/31 11:02:31;;;;;;;5.70;2.10;;;17.90;99.90;;;;;;4973758;28;20293;-79
2023/08/31 11:05:16;;;;;;;5.90;2.07;;;18.10;99.90;;;;;;4975094;28;20190;-78
2023/08/31 11:07:43;;;;;;;4.93;1.57;;;18.20;99.90;;;;;;4975944;28;20174;-78
2023/08/31 11:10:19;;;;;;;5.10;1.93;;;18.40;1.00;;;;;;4975128;28;20206;-78
2023/08/31 11:12:46;;;;;;;2.07;1.30;;;18.60;50.40;;;;;;4974594;28;20204;-78
2023/08/31 11:15:14;;;;;;;5.63;2.27;;;18.60;1.00;;;;;;4974636;28;20178;-77
2023/08/31 11:17:40;;;;;;;3.80;1.90;;;18.90;1.00;;;;;;4974268;28;20261;-78
2023/08/31 11:20:09;;;;;;;5.00;1.60;;;18.90;29.10;;;;;;4975053;28;20189;-78
2023/08/31 11:22:37;;;;;;;5.90;1.93;;;18.90;72.80;;;;;;4974458;28;20213;-78
2023/08/31 11:25:03;;;;;;;2.53;1.57;;;19.00;1.00;;;;;;4975623;28;20226;-77
2023/08/31 11:27:29;;;;;;;5.40;1.60;;;19.00;99.80;;;;;;4975386;28;20186;-78
2023/08/31 11:29:54;;;;;;;3.93;1.80;;;19.00;14.40;;;;;;4974586;28;20233;-78
2023/08/31 11:32:24;;;;;;;5.20;1.77;;;19.00;99.90;;;;;;4974046;28;20209;-78
2023/08/31 11:34:50;;;;;;;4.73;1.57;;;19.10;1.00;;;;;;4974018;28;20658;-78
2023/08/31 11:37:16;;;;;;;4.47;1.67;;;19.00;1.00;;;;;;4974083;28;20178;-79
2023/08/31 11:39:51;;;;;;;4.17;1.70;;;19.00;1.00;;;;;;4974697;28;20265;-78
2023/08/31 11:42:20;;;;;;;2.43;1.23;;;18.80;1.00;;;;;;4973976;28;20221;-77
2023/08/31 11:44:48;;;;;;;7.70;2.00;;;18.70;1.00;;;;;;4975104;28;20178;-78
2023/08/31 11:47:15;;;;;;;4.40;1.90;;;18.70;1.00;;;;;;4974337;28;20202;-78
2023/08/31 11:49:42;;;;;;;5.27;1.57;;;18.50;77.00;;;;;;4975295;28;20205;-78
2023/08/31 11:52:09;;;;;;;3.17;1.50;;;18.40;99.90;;;;;;4973691;28;20225;-78
2023/08/31 11:54:38;;;;;;;6.10;2.13;;;18.30;99.90;;;;;;4975281;28;20673;-78
2023/08/31 11:57:07;;;;;;;4.17;1.93;;;18.40;99.90;;;;;;4971603;28;20190;-78
2023/08/31 11:59:35;;;;;;;4.70;1.80;;;18.30;99.90;;;;;;4973659;28;20197;-78
2023/08/31 12:02:00;;;;;;;4.33;1.63;;;18.30;99.90;;;;;;4976111;28;20281;-76
2023/08/31 12:04:26;;;;;;;2.60;1.60;;;18.30;99.90;;;;;;4974189;28;20224;-77
2023/08/31 12:06:55;;;;;;;6.13;1.80;;;18.40;99.90;;;;;;4974301;28;20178;-77
2023/08/31 12:09:21;;;;;;;2.40;1.70;;;18.40;99.90;;;;;;4972976;28;20202;-77
2023/08/31 12:11:53;;;;;;;4.37;1.67;;;18.50;99.90;;;;;;4974044;28;20597;-77
2023/08/31 12:14:24;;;;;;;6.17;1.50;;;18.50;99.90;;;;;;4972684;28;20254;-76
2023/08/31 12:16:51;;;;;;;3.87;1.57;;;18.60;99.90;;;;;;4974025;28;20162;-77
2023/08/31 12:19:17;;;;;;;5.03;1.93;;;18.60;99.90;;;;;;4971652;28;20317;-77
2023/08/31 12:21:44;;;;;;;2.83;1.50;;;18.70;99.90;;;;;;4975145;28;20202;-78
2023/08/31 12:24:10;;;;;;;3.60;1.63;;;18.40;99.90;;;;;;4974853;28;20651;-78
2023/08/31 12:26:36;;;;;;;4.83;1.60;;;18.60;99.90;;;;;;4974290;28;20201;-78
2023/08/31 12:29:05;;;;;;;3.07;1.67;;;18.70;99.90;;;;;;4972403;28;20722;-78
2023/08/31 12:31:35;;;;;;;5.47;1.93;;;18.70;99.90;;;;;;4974695;28;20219;-78
2023/08/31 12:34:04;;;;;;;3.37;1.67;;;18.60;99.90;;;;;;4974729;28;20697;-76
2023/08/31 12:36:30;;;;;;;5.30;2.00;;;18.70;99.90;;;;;;4973387;28;20202;-78
2023/08/31 12:38:55;;;;;;;5.90;1.87;;;18.90;99.90;;;;;;4972275;28;20257;-78
2023/08/31 12:41:21;;;;;;;5.07;1.60;;;18.80;99.90;;;;;;4973477;28;20297;-78
2023/08/31 12:43:46;;;;;;;5.23;1.60;;;18.90;99.90;;;;;;4974491;28;20228;-78
2023/08/31 12:46:13;;;;;;;4.43;1.70;;;19.00;99.90;;;;;;4973283;28;20185;-77